Macau, China
Current Conditions -  °F | °C
As of 6:00 PM on Saturday 29 Nov 2014 (Local Time) from VMMC Reporting Station
Scattered Clouds Scattered Clouds  
Wind Chill: 73°   Ceiling: Unl
Heat Index: 73°   Visibility: 5mi
Dew Point: 72°   Wind: 14mph
Humidity: 94%   Direction: 100°E
Pressure: 29.85"   Gusts: NA
Location:  22.2°N, 113.54°E
Report Text: VMMC 291000Z 10012KT 8000 FEW010 SCT025 23/22 Q1011 NOSIG
Loading
Personal Weather Stations






























Interactive Weather Map New forecast layout! Learn more

10-Day Weather Forecast

Advertisements
Track Severe Weather on mobile